パラオ の空港の天気 - METARとTAF

パラオ国際空港 ( PTRO / ROR ) - パラオ アイライ州
飛行場実況気象(Metar)
観測時間08/23 00:50 PWT (08/22 15:50 UTC)
風向・風速西南西 2m/s
視程10km以上
天気現象
全天の4割程度の雲 雲底高度 490m
全天の8割程度の雲 雲底高度 9140m
気温26℃
湿度89%
気圧1011hPa
METARPTRO 221550Z 25004KT 15SM SCT016 BKN300 26/24 A2986
過去の天気等 Google飛行場航空写真 Wunderground天気予報

過去48時間のMETAR

飛行場予報(TAF)
発表時間: 8/22 20:24 PWT (8/22 11:24 UTC)
予報対象時間: 22日21時 PWT ~ 23日21時 PWT
風向・風速西南西 4m/s
視程10km以上
天気現象周辺でしゅう雨
全天の4割程度の雲 雲底高度 300m
全天の4割程度の雲 雲底高度 490m
全天の8割程度の雲 雲底高度 3660m
PTRO 221124Z 2212/2312 24007KT P6SM VCSH SCT010 SCT016 BKN120